Time;durP1;ratioP1;P1;durP2;ratioP2;P2;SDS_P1;SDS_P2;PMS_P1;PMS_P2;Temp;Humidity;BMP_temperature;BMP_pressure;BME280_temperature;BME280_humidity;BME280_pressure;Samples;Min_cycle;Max_cycle;Signal;HPM_P1;HPM_P2
2024/01/23 00:00:14;;;;;;;;;;;;;;;6.59;82.59;100735.66;4186026;28;20027;-69
2024/01/23 00:02:16;;;;;;;;;;;;;;;6.61;82.62;100723.75;4171687;28;20024;-69
2024/01/23 00:04:18;;;;;;;;;;;;;;;6.63;82.74;100718.22;4203464;28;20031;-68
2024/01/23 00:06:20;;;;;;;;;;;;;;;6.63;82.56;100724.47;4205276;28;20445;-69
2024/01/23 00:08:21;;;;;;;;;;;;;;;6.62;82.93;100711.19;4205206;28;20044;-69
2024/01/23 00:10:25;;;;;;;;;;;;;;;6.62;82.80;100714.72;4203445;28;20019;-68
2024/01/23 00:12:27;;;;;;;;;;;;;;;6.63;82.62;100724.47;4204305;28;20018;-69
2024/01/23 00:14:29;;;;;;;;;;;;;;;6.63;82.77;100715.56;4204076;28;20014;-69
2024/01/23 00:16:30;;;;;;;;;;;;;;;6.63;82.84;100729.84;4205190;28;20019;-69
2024/01/23 00:18:32;;;;;;;;;;;;;;;6.64;82.86;100726.13;4204623;28;19956;-68
2024/01/23 00:20:34;;;;;;;;;;;;;;;6.64;82.96;100723.44;4204872;28;20107;-69
2024/01/23 00:22:36;;;;;;;;;;;;;;;6.64;82.83;100730.66;4202634;28;19936;-69
2024/01/23 00:24:37;;;;;;;;;;;;;;;6.63;82.83;100728.97;4203473;28;20033;-69
2024/01/23 00:26:41;;;;;;;;;;;;;;;6.63;83.02;100735.19;4204663;28;20062;-69
2024/01/23 00:28:42;;;;;;;;;;;;;;;6.64;82.75;100736.03;4186981;28;20019;-69
2024/01/23 00:30:44;;;;;;;;;;;;;;;6.66;83.05;100745.63;4186812;28;20463;-69
2024/01/23 00:32:46;;;;;;;;;;;;;;;6.67;83.01;100733.88;4204540;28;20022;-69
2024/01/23 00:34:48;;;;;;;;;;;;;;;6.65;82.91;100738.56;4205147;28;20011;-69
2024/01/23 00:36:49;;;;;;;;;;;;;;;6.65;82.86;100737.75;4205157;28;20666;-69
2024/01/23 00:38:51;;;;;;;;;;;;;;;6.63;82.95;100735.19;4169964;28;19971;-69
2024/01/23 00:40:53;;;;;;;;;;;;;;;6.65;82.94;100741.25;4203946;28;20019;-69
2024/01/23 00:42:56;;;;;;;;;;;;;;;6.65;82.86;100729.69;4204590;28;20782;-69
2024/01/23 00:44:58;;;;;;;;;;;;;;;6.64;82.71;100730.66;4205387;28;20012;-69
2024/01/23 00:46:59;;;;;;;;;;;;;;;6.64;83.00;100738.72;4204901;28;20031;-68
2024/01/23 00:49:01;;;;;;;;;;;;;;;6.64;82.63;100726.13;4154962;28;19965;-69
2024/01/23 00:51:02;;;;;;;;;;;;;;;6.63;83.00;100739.72;4204093;28;20027;-69
2024/01/23 00:53:04;;;;;;;;;;;;;;;6.64;82.81;100742.25;4204748;28;20023;-69
2024/01/23 00:55:07;;;;;;;;;;;;;;;6.64;82.96;100755.66;4204780;28;20036;-68
2024/01/23 00:57:09;;;;;;;;;;;;;;;6.64;82.75;100769.06;4204501;28;20040;-69
2024/01/23 00:59:13;;;;;;;;;;;;;;;6.63;82.81;100783.50;4204360;28;20022;-69
2024/01/23 01:01:15;;;;;;;;;;;;;;;6.62;82.58;100797.91;4203248;28;20014;-69
2024/01/23 01:03:16;;;;;;;;;;;;;;;6.63;82.98;100783.50;4204985;28;19932;-69
2024/01/23 01:05:19;;;;;;;;;;;;;;;6.62;83.05;100784.50;4204252;28;19996;-69
2024/01/23 01:07:21;;;;;;;;;;;;;;;6.64;83.02;100784.34;4203897;28;20020;-69
2024/01/23 01:09:23;;;;;;;;;;;;;;;6.65;83.19;100788.72;4203653;28;20035;-69
2024/01/23 01:11:25;;;;;;;;;;;;;;;6.65;82.84;100802.16;4203223;28;20015;-69
2024/01/23 01:13:27;;;;;;;;;;;;;;;6.64;82.92;100817.38;4204238;28;20043;-68
2024/01/23 01:15:30;;;;;;;;;;;;;;;6.64;83.39;100811.19;4204588;28;19974;-69
2024/01/23 01:17:32;;;;;;;;;;;;;;;6.64;83.37;100795.91;4203489;28;20011;-69
2024/01/23 01:19:34;;;;;;;;;;;;;;;6.64;83.25;100812.03;4204010;28;20453;-69
2024/01/23 01:21:36;;;;;;;;;;;;;;;6.66;83.72;100814.56;4203681;28;20027;-69
2024/01/23 01:23:38;;;;;;;;;;;;;;;6.67;83.47;100800.16;4204753;28;20388;-69
2024/01/23 01:25:43;;;;;;;;;;;;;;;6.66;83.47;100803.81;4203338;28;20031;-69
2024/01/23 01:27:45;;;;;;;;;;;;;;;6.64;83.93;100795.91;4204490;28;20035;-69
2024/01/23 01:29:47;;;;;;;;;;;;;;;6.67;83.75;100794.78;4170612;28;20040;-69
2024/01/23 01:31:50;;;;;;;;;;;;;;;6.66;84.00;100795.75;4203630;28;19996;-68
2024/01/23 01:33:52;;;;;;;;;;;;;;;6.64;83.98;100805.81;4204469;28;20010;-70
2024/01/23 01:35:54;;;;;;;;;;;;;;;6.63;83.99;100791.56;4204443;28;20015;-69
2024/01/23 01:37:59;;;;;;;;;;;;;;;6.61;83.60;100790.00;4204423;28;20015;-69
2024/01/23 01:40:00;;;;;;;;;;;;;;;6.59;83.63;100792.00;4203310;28;19978;-68
2024/01/23 01:42:02;;;;;;;;;;;;;;;6.57;83.71;100796.69;4202879;28;21295;-68
2024/01/23 01:44:04;;;;;;;;;;;;;;;6.54;83.81;100802.34;4204210;28;19928;-68
2024/01/23 01:46:11;;;;;;;;;;;;;;;6.49;84.14;100809.00;4204215;28;20023;-68
2024/01/23 01:48:14;;;;;;;;;;;;;;;6.48;84.11;100799.25;4201672;28;20011;-69
2024/01/23 01:50:16;;;;;;;;;;;;;;;6.47;84.01;100802.94;4203211;28;20026;-69
2024/01/23 01:52:18;;;;;;;;;;;;;;;6.44;84.34;100803.25;4203457;28;20016;-68
2024/01/23 01:54:20;;;;;;;;;;;;;;;6.41;84.35;100808.03;4204111;28;20048;-69
2024/01/23 01:56:23;;;;;;;;;;;;;;;6.39;84.64;100808.19;4203618;28;20027;-69
2024/01/23 01:58:24;;;;;;;;;;;;;;;6.38;84.32;100800.28;4203078;28;20670;-69
2024/01/23 02:00:26;;;;;;;;;;;;;;;6.36;84.39;100803.13;4185862;28;19979;-69
2024/01/23 02:02:28;;;;;;;;;;;;;;;6.33;84.46;100800.72;4185582;28;20011;-69
2024/01/23 02:04:32;;;;;;;;;;;;;;;6.31;84.50;100808.94;4200797;28;19924;-68
2024/01/23 02:06:35;;;;;;;;;;;;;;;6.30;84.34;100809.06;4201817;28;20015;-70
2024/01/23 02:08:37;;;;;;;;;;;;;;;6.30;84.39;100817.13;4202992;28;20023;-69
2024/01/23 02:10:39;;;;;;;;;;;;;;;6.28;84.65;100808.38;4202119;28;19928;-68
2024/01/23 02:12:41;;;;;;;;;;;;;;;6.27;84.61;100820.97;4202562;28;20008;-69
2024/01/23 02:14:42;;;;;;;;;;;;;;;6.24;84.40;100817.75;4203358;28;20019;-69
2024/01/23 02:16:44;;;;;;;;;;;;;;;6.22;84.67;100817.88;4202747;28;19932;-69
2024/01/23 02:18:46;;;;;;;;;;;;;;;6.22;84.71;100808.97;4203313;28;20011;-69
2024/01/23 02:20:49;;;;;;;;;;;;;;;6.20;84.33;100814.47;4202428;28;20031;-69
2024/01/23 02:22:50;;;;;;;;;;;;;;;6.19;84.33;100807.44;4202911;28;20027;-69
2024/01/23 02:24:53;;;;;;;;;;;;;;;6.17;84.39;100809.41;4203427;28;19932;-69
2024/01/23 02:26:55;;;;;;;;;;;;;;;6.18;84.44;100815.66;4184827;28;20019;-69
2024/01/23 02:28:57;;;;;;;;;;;;;;;6.17;84.20;100817.47;4202385;28;20857;-69
2024/01/23 02:30:59;;;;;;;;;;;;;;;6.18;84.33;100812.97;4203205;28;20011;-69
2024/01/23 02:33:03;;;;;;;;;;;;;;;6.17;84.39;100801.38;4203325;28;20011;-69
2024/01/23 02:35:04;;;;;;;;;;;;;;;6.19;84.27;100809.25;4203097;28;20445;-69
2024/01/23 02:37:06;;;;;;;;;;;;;;;6.17;84.04;100809.41;4203289;28;20008;-69
2024/01/23 02:39:08;;;;;;;;;;;;;;;6.15;84.26;100799.84;4184795;28;20031;-66
2024/01/23 02:41:12;;;;;;;;;;;;;;;6.15;84.42;100811.41;4201567;28;20039;-69
2024/01/23 02:43:14;;;;;;;;;;;;;;;6.13;84.21;100814.22;4202709;28;20050;-69
2024/01/23 02:45:15;;;;;;;;;;;;;;;6.10;84.40;100811.84;4203058;28;19959;-69
2024/01/23 02:47:17;;;;;;;;;;;;;;;6.09;84.70;100806.63;4203769;28;20031;-69
2024/01/23 02:49:19;;;;;;;;;;;;;;;6.09;84.49;100818.19;4203210;28;20407;-69
2024/01/23 02:51:21;;;;;;;;;;;;;;;6.08;84.65;100816.50;4202688;28;20028;-69
2024/01/23 02:53:23;;;;;;;;;;;;;;;6.07;84.68;100832.75;4203775;28;20888;-69
2024/01/23 02:55:25;;;;;;;;;;;;;;;6.08;84.68;100829.94;4203648;28;20023;-69
2024/01/23 02:57:28;;;;;;;;;;;;;;;6.10;84.74;100816.38;4205955;28;20043;-69
2024/01/23 02:59:30;;;;;;;;;;;;;;;6.09;85.11;100817.34;4205524;28;19967;-68
2024/01/23 03:01:32;;;;;;;;;;;;;;;6.08;84.97;100823.69;4188307;28;20477;-70
2024/01/23 03:03:34;;;;;;;;;;;;;;;6.07;84.94;100820.19;4206447;28;20027;-69
2024/01/23 03:05:36;;;;;;;;;;;;;;;6.06;85.13;100815.78;4201849;28;19978;-69
2024/01/23 03:07:37;;;;;;;;;;;;;;;6.08;85.24;100827.25;4197254;28;20059;-69
2024/01/23 03:09:40;;;;;;;;;;;;;;;6.07;84.95;100822.03;4194361;28;20042;-69
2024/01/23 03:11:43;;;;;;;;;;;;;;;6.04;84.87;100812.41;4196203;28;20014;-69
2024/01/23 03:13:46;;;;;;;;;;;;;;;6.02;84.85;100817.09;4198083;28;20375;-69
2024/01/23 03:15:49;;;;;;;;;;;;;;;6.02;84.91;100818.91;4197948;28;20043;-69
2024/01/23 03:17:51;;;;;;;;;;;;;;;6.02;84.87;100819.78;4198018;28;20008;-69
2024/01/23 03:19:52;;;;;;;;;;;;;;;6.01;85.22;100823.44;4197039;28;20027;-69
2024/01/23 03:21:54;;;;;;;;;;;;;;;6.04;85.06;100841.91;4197975;28;20011;-69
2024/01/23 03:23:58;;;;;;;;;;;;;;;6.05;84.98;100838.25;4205301;28;20015;-69
2024/01/23 03:26:00;;;;;;;;;;;;;;;6.01;84.82;100839.53;4198329;28;19929;-69
2024/01/23 03:28:01;;;;;;;;;;;;;;;6.03;85.02;100839.38;4197285;28;20023;-67
2024/01/23 03:30:04;;;;;;;;;;;;;;;6.03;84.72;100834.84;4196882;28;20146;-68
2024/01/23 03:32:06;;;;;;;;;;;;;;;6.04;84.69;100841.91;4197692;28;20411;-69
2024/01/23 03:34:08;;;;;;;;;;;;;;;6.05;84.69;100853.47;4197576;28;20023;-69
2024/01/23 03:36:09;;;;;;;;;;;;;;;6.03;84.58;100852.78;4197431;28;20022;-69
2024/01/23 03:38:12;;;;;;;;;;;;;;;6.01;84.96;100847.56;4197410;28;20031;-69
2024/01/23 03:40:14;;;;;;;;;;;;;;;6.01;84.81;100870.88;4195992;28;20418;-69
2024/01/23 03:42:16;;;;;;;;;;;;;;;6.02;84.82;100851.94;4196367;28;20015;-69
2024/01/23 03:44:17;;;;;;;;;;;;;;;6.02;84.45;100857.31;4196572;28;20376;-69
2024/01/23 03:46:21;;;;;;;;;;;;;;;6.01;84.86;100860.13;4189395;28;20400;-68
2024/01/23 03:48:22;;;;;;;;;;;;;;;6.02;84.50;100859.13;4197445;28;20015;-69
2024/01/23 03:50:25;;;;;;;;;;;;;;;6.03;84.94;100866.19;4197312;28;20389;-69
2024/01/23 03:52:27;;;;;;;;;;;;;;;6.03;84.49;100868.88;4197179;28;19987;-69
2024/01/23 03:54:29;;;;;;;;;;;;;;;6.00;84.45;100875.34;4197728;28;20023;-69
2024/01/23 03:56:30;;;;;;;;;;;;;;;5.98;84.48;100869.31;4197297;28;20019;-69
2024/01/23 03:58:31;;;;;;;;;;;;;;;5.95;84.47;100875.75;4204660;28;20018;-69
2024/01/23 04:00:33;;;;;;;;;;;;;;;5.95;84.75;100873.06;4196679;28;19935;-69
2024/01/23 04:02:37;;;;;;;;;;;;;;;5.92;84.58;100867.16;4194722;28;20406;-70
2024/01/23 04:04:39;;;;;;;;;;;;;;;5.92;84.93;100876.06;4202412;28;20051;-69
2024/01/23 04:06:41;;;;;;;;;;;;;;;5.92;84.70;100875.22;4212912;28;20827;-68
2024/01/23 04:08:44;;;;;;;;;;;;;;;5.91;84.80;100871.69;4213336;28;20013;-69
2024/01/23 04:10:46;;;;;;;;;;;;;;;5.90;85.11;100871.84;4213461;28;20014;-69
2024/01/23 04:12:50;;;;;;;;;;;;;;;5.90;84.62;100872.66;4212630;28;20209;-69
2024/01/23 04:14:53;;;;;;;;;;;;;;;5.88;84.96;100865.78;4214305;28;20015;-68
2024/01/23 04:16:54;;;;;;;;;;;;;;;5.88;84.96;100868.47;4214647;28;20026;-68
2024/01/23 04:18:58;;;;;;;;;;;;;;;5.86;84.76;100882.00;4213585;28;20014;-69
2024/01/23 04:21:00;;;;;;;;;;;;;;;5.86;84.80;100870.41;4194877;28;20468;-67
2024/01/23 04:23:02;;;;;;;;;;;;;;;5.85;84.56;100888.34;4213545;28;20011;-68
2024/01/23 04:25:05;;;;;;;;;;;;;;;5.84;84.89;100889.31;4194281;28;19936;-67
2024/01/23 04:27:07;;;;;;;;;;;;;;;5.83;84.88;100892.16;4214169;28;19935;-69
2024/01/23 04:29:09;;;;;;;;;;;;;;;5.82;84.87;100891.31;4211099;28;20435;-69
2024/01/23 04:31:11;;;;;;;;;;;;;;;5.82;84.59;100898.50;4212677;28;20062;-69
2024/01/23 04:33:13;;;;;;;;;;;;;;;5.80;84.79;100895.97;4213654;28;20018;-69
2024/01/23 04:35:16;;;;;;;;;;;;;;;5.77;84.64;100902.47;4213029;28;20453;-69
2024/01/23 04:37:18;;;;;;;;;;;;;;;5.77;84.51;100904.31;4187931;28;20023;-69
2024/01/23 04:39:19;;;;;;;;;;;;;;;5.77;84.94;100913.19;4211406;28;20031;-69
2024/01/23 04:41:24;;;;;;;;;;;;;;;5.77;84.43;100923.06;4212563;28;19936;-69
2024/01/23 04:43:26;;;;;;;;;;;;;;;5.73;84.83;100919.78;4211163;28;20011;-69
2024/01/23 04:45:27;;;;;;;;;;;;;;;5.73;84.56;100924.31;4212531;28;20015;-69
2024/01/23 04:47:29;;;;;;;;;;;;;;;5.74;84.74;100939.44;4212052;28;19932;-68
2024/01/23 04:49:31;;;;;;;;;;;;;;;5.73;84.80;100949.28;4212685;28;20010;-69
2024/01/23 04:51:35;;;;;;;;;;;;;;;5.73;84.75;100951.94;4211999;28;20412;-69
2024/01/23 04:53:36;;;;;;;;;;;;;;;5.74;85.06;100952.81;4212406;28;20378;-69
2024/01/23 04:55:38;;;;;;;;;;;;;;;5.73;84.94;100957.31;4211170;28;20030;-69
2024/01/23 04:57:41;;;;;;;;;;;;;;;5.72;85.29;100966.38;4210588;28;20066;-66
2024/01/23 04:59:43;;;;;;;;;;;;;;;5.73;85.63;100970.72;4211301;28;20432;-69
2024/01/23 05:01:45;;;;;;;;;;;;;;;5.74;85.90;100969.75;4212570;28;20006;-69
2024/01/23 05:03:47;;;;;;;;;;;;;;;5.74;86.31;100977.78;4213283;28;19928;-71
2024/01/23 05:05:49;;;;;;;;;;;;;;;5.73;86.52;100973.41;4213007;28;20820;-69
2024/01/23 05:07:52;;;;;;;;;;;;;;;5.73;86.79;100985.97;4212328;28;19939;-69
2024/01/23 05:09:54;;;;;;;;;;;;;;;5.72;87.29;101013.72;4187086;28;20027;-70
2024/01/23 05:11:56;;;;;;;;;;;;;;;5.72;87.20;100998.53;4211554;28;20023;-67
2024/01/23 05:13:58;;;;;;;;;;;;;;;5.71;87.55;101007.53;4212549;28;20346;-67
2024/01/23 05:16:00;;;;;;;;;;;;;;;5.70;87.79;101016.56;4212745;28;20031;-67
2024/01/23 05:18:06;;;;;;;;;;;;;;;5.66;88.13;101023.19;4212554;28;20031;-67
2024/01/23 05:20:09;;;;;;;;;;;;;;;5.64;88.28;101011.75;4211428;28;20031;-66
2024/01/23 05:22:11;;;;;;;;;;;;;;;5.65;88.66;101026.84;4212198;28;20019;-67
2024/01/23 05:24:14;;;;;;;;;;;;;;;5.66;88.39;101025.88;4211989;28;20008;-67
2024/01/23 05:26:16;;;;;;;;;;;;;;;5.67;88.15;101032.06;4212450;28;20051;-68
2024/01/23 05:28:18;;;;;;;;;;;;;;;5.64;88.26;101025.16;4212805;28;19963;-68
2024/01/23 05:30:20;;;;;;;;;;;;;;;5.64;88.09;101037.69;4211713;28;20015;-68
2024/01/23 05:32:22;;;;;;;;;;;;;;;5.62;88.13;101035.16;4202715;28;20536;-68
2024/01/23 05:34:25;;;;;;;;;;;;;;;5.62;88.05;101035.16;4212354;28;20024;-68
2024/01/23 05:36:27;;;;;;;;;;;;;;;5.63;87.97;101036.88;4211938;28;20026;-68
2024/01/23 05:38:29;;;;;;;;;;;;;;;5.62;87.97;101043.19;4211692;28;20018;-68
2024/01/23 05:40:32;;;;;;;;;;;;;;;5.61;87.74;101033.47;4211582;28;20023;-68
2024/01/23 05:42:35;;;;;;;;;;;;;;;5.59;87.39;101051.50;4211486;28;20477;-68
2024/01/23 05:44:37;;;;;;;;;;;;;;;5.58;87.51;101066.75;4210272;28;20043;-68
2024/01/23 05:46:38;;;;;;;;;;;;;;;5.60;87.51;101071.97;4211990;28;20391;-68
2024/01/23 05:48:40;;;;;;;;;;;;;;;5.57;87.29;101069.56;4212239;28;19963;-68
2024/01/23 05:50:42;;;;;;;;;;;;;;;5.57;87.07;101089.16;4192918;28;20043;-67
2024/01/23 05:52:44;;;;;;;;;;;;;;;5.56;86.94;101089.28;4193117;28;20015;-68
2024/01/23 05:54:46;;;;;;;;;;;;;;;5.55;86.91;101071.53;4202790;28;20011;-68
2024/01/23 05:56:49;;;;;;;;;;;;;;;5.56;86.82;101095.53;4211626;28;20019;-67
2024/01/23 05:58:51;;;;;;;;;;;;;;;5.56;86.53;101073.22;4203164;28;20342;-68
2024/01/23 06:00:53;;;;;;;;;;;;;;;5.56;86.49;101083.94;4211376;28;20018;-68
2024/01/23 06:02:55;;;;;;;;;;;;;;;5.57;86.44;101080.28;4210844;28;20688;-68
2024/01/23 06:04:57;;;;;;;;;;;;;;;5.55;86.40;101085.78;4211866;28;20023;-69
2024/01/23 06:06:59;;;;;;;;;;;;;;;5.55;86.20;101092.97;4211592;28;20022;-68
2024/01/23 06:09:02;;;;;;;;;;;;;;;5.55;86.28;101101.03;4211535;28;20385;-68
2024/01/23 06:11:04;;;;;;;;;;;;;;;5.54;86.29;101105.50;4210931;28;20819;-69
2024/01/23 06:13:08;;;;;;;;;;;;;;;5.54;86.72;101104.66;4211782;28;20042;-68
2024/01/23 06:15:10;;;;;;;;;;;;;;;5.50;86.40;101104.09;4211299;28;20023;-68
2024/01/23 06:17:12;;;;;;;;;;;;;;;5.50;86.45;101103.22;4211618;28;20026;-68
2024/01/23 06:19:14;;;;;;;;;;;;;;;5.50;86.55;101109.47;4193161;28;20395;-67
2024/01/23 06:21:16;;;;;;;;;;;;;;;5.47;86.60;101115.09;4210767;28;20027;-67
2024/01/23 06:23:18;;;;;;;;;;;;;;;5.48;86.77;101121.28;4210564;28;20023;-67
2024/01/23 06:25:20;;;;;;;;;;;;;;;5.47;86.42;101122.25;4211647;28;20505;-68
2024/01/23 06:27:21;;;;;;;;;;;;;;;5.46;86.83;101128.63;4211332;28;20023;-68
2024/01/23 06:29:24;;;;;;;;;;;;;;;5.45;86.61;101133.09;4211031;28;20027;-68
2024/01/23 06:31:27;;;;;;;;;;;;;;;5.44;86.79;101138.59;4214055;28;20035;-67
2024/01/23 06:33:28;;;;;;;;;;;;;;;5.43;86.97;101136.91;4214217;28;20018;-68
2024/01/23 06:35:30;;;;;;;;;;;;;;;5.40;86.91;101136.19;4213800;28;19928;-68
2024/01/23 06:37:32;;;;;;;;;;;;;;;5.41;86.86;101155.81;4214830;28;20027;-67
2024/01/23 06:39:34;;;;;;;;;;;;;;;5.40;86.79;101159.44;4213256;28;20011;-67
2024/01/23 06:41:37;;;;;;;;;;;;;;;5.38;86.74;101159.59;4194809;28;20015;-67
2024/01/23 06:43:39;;;;;;;;;;;;;;;5.37;87.05;101157.88;4213465;28;20024;-68
2024/01/23 06:45:42;;;;;;;;;;;;;;;5.37;87.36;101163.22;4213939;28;20011;-66
2024/01/23 06:47:44;;;;;;;;;;;;;;;5.37;87.10;101168.59;4214030;28;20038;-68
2024/01/23 06:49:45;;;;;;;;;;;;;;;5.35;86.95;101173.25;4213827;28;19932;-68
2024/01/23 06:51:47;;;;;;;;;;;;;;;5.34;86.80;101171.53;4214192;28;20027;-67
2024/01/23 06:53:49;;;;;;;;;;;;;;;5.33;87.11;101174.34;4213520;28;20023;-67
2024/01/23 06:55:51;;;;;;;;;;;;;;;5.32;87.13;101176.19;4213389;28;20619;-68
2024/01/23 06:57:52;;;;;;;;;;;;;;;5.32;86.77;101168.16;4214076;28;21107;-68
2024/01/23 06:59:54;;;;;;;;;;;;;;;5.29;86.82;101181.81;4213724;28;19935;-67
2024/01/23 07:01:57;;;;;;;;;;;;;;;5.30;87.07;101186.19;4213238;28;20015;-68
2024/01/23 07:03:59;;;;;;;;;;;;;;;5.28;86.83;101187.28;4214286;28;20022;-68
2024/01/23 07:06:01;;;;;;;;;;;;;;;5.26;86.92;101192.78;4197089;28;20387;-68
2024/01/23 07:08:04;;;;;;;;;;;;;;;5.25;86.91;101199.13;4196782;28;20023;-70
2024/01/23 07:10:06;;;;;;;;;;;;;;;5.26;87.20;101208.00;4196613;28;20409;-68
2024/01/23 07:12:08;;;;;;;;;;;;;;;5.27;87.43;101217.75;4196751;28;20027;-66
2024/01/23 07:14:09;;;;;;;;;;;;;;;5.27;86.99;101215.91;4196869;28;20019;-67
2024/01/23 07:16:11;;;;;;;;;;;;;;;5.27;87.29;101218.59;4197508;28;20011;-68
2024/01/23 07:18:14;;;;;;;;;;;;;;;5.28;87.01;101220.28;4196983;28;20446;-67
2024/01/23 07:20:16;;;;;;;;;;;;;;;5.26;87.25;101218.72;4196494;28;20015;-67
2024/01/23 07:22:18;;;;;;;;;;;;;;;5.27;87.08;101233.81;4197016;28;20027;-67
2024/01/23 07:24:20;;;;;;;;;;;;;;;5.26;86.96;101243.66;4196094;28;20027;-66
2024/01/23 07:26:22;;;;;;;;;;;;;;;5.29;87.17;101246.09;4196438;28;20019;-66
2024/01/23 07:28:24;;;;;;;;;;;;;;;5.32;87.22;101243.16;4196796;28;20031;-67
2024/01/23 07:30:26;;;;;;;;;;;;;;;5.31;87.11;101249.47;4196896;28;19952;-67
2024/01/23 07:32:28;;;;;;;;;;;;;;;5.34;86.92;101246.53;4197556;28;20016;-68
2024/01/23 07:34:31;;;;;;;;;;;;;;;5.35;86.65;101258.97;4196415;28;20023;-67
2024/01/23 07:36:33;;;;;;;;;;;;;;;5.37;86.83;101245.44;4193476;28;20011;-67
2024/01/23 07:38:35;;;;;;;;;;;;;;;5.39;86.30;101252.38;4194732;28;20024;-67
2024/01/23 07:40:38;;;;;;;;;;;;;;;5.40;86.21;101235.28;4210956;28;20022;-67
2024/01/23 07:42:40;;;;;;;;;;;;;;;5.44;86.12;101235.03;4194629;28;20012;-67
2024/01/23 07:44:42;;;;;;;;;;;;;;;5.44;86.34;101246.63;4195836;28;20019;-67
2024/01/23 07:46:44;;;;;;;;;;;;;;;5.46;86.29;101241.97;4196257;28;20023;-68
2024/01/23 07:48:45;;;;;;;;;;;;;;;5.49;86.17;101248.91;4196276;28;20011;-67
2024/01/23 07:50:48;;;;;;;;;;;;;;;5.49;85.89;101231.00;4196299;28;19963;-67
2024/01/23 07:52:50;;;;;;;;;;;;;;;5.50;85.57;101230.03;4197058;28;20027;-67
2024/01/23 07:54:53;;;;;;;;;;;;;;;5.50;85.70;101250.59;4196463;28;20012;-68
2024/01/23 07:56:55;;;;;;;;;;;;;;;5.52;85.67;101246.81;4197578;28;20023;-68
2024/01/23 07:58:57;;;;;;;;;;;;;;;5.54;85.75;101247.50;4196508;28;20019;-68
2024/01/23 08:00:59;;;;;;;;;;;;;;;5.56;85.72;101261.66;4196391;28;20027;-68
2024/01/23 08:03:00;;;;;;;;;;;;;;;5.58;85.54;101256.16;4196800;28;20035;-67
2024/01/23 08:05:02;;;;;;;;;;;;;;;5.59;85.58;101260.53;4203609;28;19928;-67
2024/01/23 08:07:05;;;;;;;;;;;;;;;5.58;85.20;101262.34;4196946;28;20055;-67
2024/01/23 08:09:07;;;;;;;;;;;;;;;5.59;85.16;101256.03;4196974;28;19966;-67
2024/01/23 08:11:09;;;;;;;;;;;;;;;5.60;85.30;101252.34;4195751;28;20026;-68
2024/01/23 08:13:11;;;;;;;;;;;;;;;5.60;85.38;101271.09;4197012;28;20016;-67
2024/01/23 08:15:13;;;;;;;;;;;;;;;5.62;85.23;101268.28;4196792;28;20024;-68
2024/01/23 08:17:15;;;;;;;;;;;;;;;5.63;85.01;101275.38;4197025;28;20047;-67
2024/01/23 08:19:17;;;;;;;;;;;;;;;5.65;85.10;101265.34;4196781;28;20011;-68
2024/01/23 08:21:19;;;;;;;;;;;;;;;5.66;84.97;101272.41;4196798;28;20011;-68
2024/01/23 08:23:22;;;;;;;;;;;;;;;5.67;85.19;101262.53;4196424;28;20055;-68
2024/01/23 08:25:23;;;;;;;;;;;;;;;5.71;85.07;101264.00;4197117;28;20465;-67
2024/01/23 08:27:25;;;;;;;;;;;;;;;5.71;85.20;101267.50;4194703;28;19979;-67
2024/01/23 08:29:27;;;;;;;;;;;;;;;5.70;84.75;101259.59;4196243;28;20024;-67
2024/01/23 08:31:30;;;;;;;;;;;;;;;5.72;84.85;101260.31;4196592;28;19928;-67
2024/01/23 08:33:33;;;;;;;;;;;;;;;5.73;84.67;101275.41;4196359;28;20027;-67
2024/01/23 08:35:36;;;;;;;;;;;;;;;5.74;84.96;101280.66;4196449;28;20015;-67
2024/01/23 08:37:38;;;;;;;;;;;;;;;5.74;84.65;101280.66;4194616;28;20016;-67
2024/01/23 08:39:42;;;;;;;;;;;;;;;5.76;84.63;101286.72;4196738;28;20039;-67
2024/01/23 08:41:43;;;;;;;;;;;;;;;5.75;84.51;101287.72;4195980;28;20469;-67
2024/01/23 08:43:45;;;;;;;;;;;;;;;5.76;84.83;101293.91;4195997;28;20042;-67
2024/01/23 08:45:50;;;;;;;;;;;;;;;5.76;84.83;101300.13;4196571;28;20016;-68
2024/01/23 08:47:52;;;;;;;;;;;;;;;5.79;84.48;101301.69;4196092;28;20032;-67
2024/01/23 08:49:54;;;;;;;;;;;;;;;5.81;84.49;101309.59;4195969;28;20011;-67
2024/01/23 08:51:56;;;;;;;;;;;;;;;5.81;84.53;101298.88;4195666;28;19924;-67
2024/01/23 08:53:58;;;;;;;;;;;;;;;5.81;84.34;101309.59;4195622;28;20007;-67
2024/01/23 08:56:01;;;;;;;;;;;;;;;5.83;84.37;101319.22;4196059;28;20016;-68
2024/01/23 08:58:03;;;;;;;;;;;;;;;5.82;84.40;101322.88;4195840;28;20438;-66
2024/01/23 09:00:06;;;;;;;;;;;;;;;5.81;84.49;101318.47;4210389;28;19959;-68
2024/01/23 09:02:09;;;;;;;;;;;;;;;5.83;84.27;101332.63;4195096;28;20011;-67
2024/01/23 09:04:11;;;;;;;;;;;;;;;5.87;84.07;101330.53;4197105;28;20031;-67
2024/01/23 09:06:13;;;;;;;;;;;;;;;5.86;84.33;101318.09;4202524;28;20465;-67
2024/01/23 09:08:15;;;;;;;;;;;;;;;5.88;84.39;101340.28;4212160;28;20011;-68
2024/01/23 09:10:17;;;;;;;;;;;;;;;5.85;83.93;101338.69;4212251;28;20011;-68
2024/01/23 09:12:21;;;;;;;;;;;;;;;5.88;84.38;101346.47;4212561;28;20031;-68
2024/01/23 09:14:23;;;;;;;;;;;;;;;5.91;84.10;101348.06;4213166;28;20015;-67
2024/01/23 09:16:25;;;;;;;;;;;;;;;5.92;84.34;101355.97;4212809;28;20014;-67
2024/01/23 09:18:28;;;;;;;;;;;;;;;5.96;83.82;101369.94;4212509;28;20368;-66
2024/01/23 09:20:30;;;;;;;;;;;;;;;5.99;84.07;101356.31;4211382;28;20019;-68
2024/01/23 09:22:32;;;;;;;;;;;;;;;5.99;84.04;101359.00;4212521;28;20470;-67
2024/01/23 09:24:34;;;;;;;;;;;;;;;5.98;83.98;101353.75;4211947;28;20023;-67
2024/01/23 09:26:36;;;;;;;;;;;;;;;6.00;83.81;101363.34;4211911;28;20018;-66
2024/01/23 09:28:40;;;;;;;;;;;;;;;6.03;83.59;101360.41;4212297;28;20007;-67
2024/01/23 09:30:43;;;;;;;;;;;;;;;6.05;83.71;101358.47;4211898;28;20448;-66
2024/01/23 09:32:46;;;;;;;;;;;;;;;6.06;83.32;101359.31;4193521;28;19959;-67
2024/01/23 09:34:47;;;;;;;;;;;;;;;6.07;83.70;101379.78;4212371;28;20015;-67
2024/01/23 09:36:50;;;;;;;;;;;;;;;6.09;83.31;101364.41;4212724;28;20027;-68
2024/01/23 09:38:51;;;;;;;;;;;;;;;6.11;83.52;101389.25;4212503;28;20039;-67
2024/01/23 09:40:53;;;;;;;;;;;;;;;6.11;83.53;101376.72;4211755;28;20031;-67
2024/01/23 09:42:55;;;;;;;;;;;;;;;6.13;83.42;101390.84;4212247;28;20470;-67
2024/01/23 09:44:58;;;;;;;;;;;;;;;6.16;83.05;101402.28;4212131;28;20356;-66
2024/01/23 09:47:00;;;;;;;;;;;;;;;6.18;83.21;101393.13;4212625;28;20022;-67
2024/01/23 09:49:02;;;;;;;;;;;;;;;6.18;82.92;101398.47;4211905;28;20058;-66
2024/01/23 09:51:05;;;;;;;;;;;;;;;6.19;82.95;101404.69;4211841;28;20039;-67
2024/01/23 09:53:07;;;;;;;;;;;;;;;6.21;82.72;101378.59;4210447;28;19924;-67
2024/01/23 09:55:09;;;;;;;;;;;;;;;6.21;83.09;101413.47;4212039;28;20010;-67
2024/01/23 09:57:11;;;;;;;;;;;;;;;6.24;82.79;101397.97;4212502;28;20018;-67
2024/01/23 09:59:13;;;;;;;;;;;;;;;6.25;82.91;101431.88;4212703;28;20015;-67
2024/01/23 10:01:16;;;;;;;;;;;;;;;6.28;82.53;101417.31;4211489;28;20031;-67
2024/01/23 10:03:18;;;;;;;;;;;;;;;6.31;82.53;101422.41;4212135;28;20031;-68
2024/01/23 10:05:22;;;;;;;;;;;;;;;6.30;82.07;101410.84;4206480;28;20010;-67
2024/01/23 10:07:23;;;;;;;;;;;;;;;6.32;82.16;101384.72;4206821;28;20354;-67
2024/01/23 10:09:24;;;;;;;;;;;;;;;6.32;82.12;101427.66;4206730;28;20054;-66
2024/01/23 10:11:27;;;;;;;;;;;;;;;6.33;82.35;101415.06;4206911;28;19931;-66
2024/01/23 10:13:29;;;;;;;;;;;;;;;6.36;82.09;101412.13;4207347;28;20022;-67
2024/01/23 10:15:30;;;;;;;;;;;;;;;6.35;82.15;101412.25;4206824;28;20024;-67
2024/01/23 10:17:34;;;;;;;;;;;;;;;6.36;81.79;101412.13;4174857;28;20031;-67
2024/01/23 10:19:36;;;;;;;;;;;;;;;6.37;81.94;101424.56;4206745;28;20062;-67
2024/01/23 10:21:38;;;;;;;;;;;;;;;6.40;81.68;101402.84;4207335;28;21209;-67
2024/01/23 10:23:40;;;;;;;;;;;;;;;6.40;81.60;101415.41;4206917;28;20003;-67
2024/01/23 10:25:42;;;;;;;;;;;;;;;6.42;81.74;101426.84;4206194;28;20019;-67
2024/01/23 10:27:44;;;;;;;;;;;;;;;6.44;81.63;101427.56;4206566;28;20010;-66
2024/01/23 10:29:46;;;;;;;;;;;;;;;6.44;81.60;101415.03;4206665;28;20580;-66
2024/01/23 10:31:48;;;;;;;;;;;;;;;6.42;81.80;101425.00;4206677;28;20015;-66
2024/01/23 10:33:51;;;;;;;;;;;;;;;6.43;81.74;101423.19;4207393;28;20558;-68
2024/01/23 10:35:54;;;;;;;;;;;;;;;6.43;81.52;101413.31;4207237;28;20022;-68